Berlin — 9HA2295 — position and weather

sailwx.info

Track history (hours):
 
Tides and Currents Weather Stations Pressure Air Temp Water Temp Dewpoint Dewpoint Depression Visibility Wind Speed Wind Dir Waves Ship Positions

Berlin

Last reported at 2014-Oct-31 20:33 UTC. Time now 2014-Nov-01 04:11 UTC.
Position N 32°38' W 016°49'.

Length 140 m; draft 5 m.

Type: Passenger vessel. MMSI: 248277000.

Date/timePositionNaut miles runAvg speedWind from/ knotsBaromVisibWave heightAir tempDewpointWater temp
2014-Oct-31 20:33N 32°38' W 016°49'5 5.0
2014-Oct-31 19:33N 32°39' W 016°55'0 0.0
2014-Oct-31 18:33N 32°39' W 016°55'0 0.0
2014-Oct-31 17:30N 32°39' W 016°55'0 0.0
2014-Oct-31 16:33N 32°39' W 016°55'0 0.0
2014-Oct-31 15:33N 32°39' W 016°55'1 0.5
2014-Oct-31 14:33N 32°38' W 016°54'1413.5
2014-Oct-31 13:34N 32°27' W 016°45'1514.3
2014-Oct-31 12:31N 32°15' W 016°35'  
2014-Oct-28 02:33N 34°37' W 007°03'1514.9
2014-Oct-28 01:34N 34°49' W 006°53'1514.9
2014-Oct-28 00:33N 35°01' W 006°42'1414.3
2014-Oct-27 23:33N 35°13' W 006°32'1514.8
2014-Oct-27 22:33N 35°25' W 006°21'5313.2
2014-Oct-27 18:33N 35°59' W 005°31'1313.3
2014-Oct-27 17:33N 36°01' W 005°15'21913.7
2014-Oct-27 01:32N 37°17' W 000°58'1514.9
2014-Oct-27 00:33N 37°26' W 000°44'1514.9
2014-Oct-26 23:33N 37°37' W 000°32'1514.9
2014-Oct-26 22:33N 37°52' W 000°28'1514.6
2014-Oct-26 21:32N 38°06' W 000°24'92 4.1
2014-Oct-25 23:04N 39°10' E 001°01'713.1
2014-Oct-25 22:33N 39°14' E 001°07'1313.0
2014-Oct-25 21:32N 39°23' E 001°20'1313.2
2014-Oct-25 20:33N 39°32' E 001°32'1312.9
2014-Oct-25 19:33N 39°40' E 001°45'1312.8
2014-Oct-25 18:33N 39°49' E 001°57'1312.7
2014-Oct-25 17:33N 39°57' E 002°09'1412.8
2014-Oct-25 16:26N 40°07' E 002°23'1212.5
2014-Oct-25 15:26N 40°15' E 002°35'1313.6
2014-Oct-25 14:31N 40°24' E 002°48'2612.7
2014-Oct-25 12:29N 40°41' E 003°12'1513.1
2014-Oct-25 11:19N 40°51' E 003°28'912.3
2014-Oct-25 10:33N 40°58' E 003°37'1413.0
2014-Oct-25 09:30N 41°07' E 003°50'1413.0
2014-Oct-25 08:25N 41°16' E 004°04'1313.4
2014-Oct-25 07:26N 41°25' E 004°17'1914.5
2014-Oct-25 06:09N 41°38' E 004°36'2614.8
2014-Oct-25 04:22N 41°55' E 005°02'8914.5
2014-Oct-24 22:15N 42°56' E 006°30'1015.2
2014-Oct-24 21:33N 43°03' E 006°40'1515.2
2014-Oct-24 20:33N 43°15' E 006°52'1514.9
2014-Oct-24 19:33N 43°27' E 007°05'1414.1
2014-Oct-24 18:33N 43°39' E 007°16'3 2.8
2014-Oct-24 17:33N 43°42' E 007°17'0 0.0
2014-Oct-24 16:33N 43°42' E 007°17'0 0.0
2014-Oct-24 15:33N 43°42' E 007°17'0 0.0
2014-Oct-24 13:33N 43°42' E 007°17'0 0.0
2014-Oct-24 12:33N 43°42' E 007°17'0 0.0
2014-Oct-24 11:33N 43°42' E 007°17'0 0.4
2014-Oct-24 10:33N 43°41' E 007°17'1111.1
2014-Oct-24 09:33N 43°36' E 007°31'1313.1
2014-Oct-24 08:33N 43°31' E 007°48'1413.3
2014-Oct-24 07:32N 43°26' E 008°05'1313.3
2014-Oct-24 06:33N 43°22' E 008°22'1414.1
2014-Oct-24 05:33N 43°16' E 008°40'1413.8
2014-Oct-24 04:32N 43°11' E 008°58'1414.0
2014-Oct-24 03:33N 43°06' E 009°15'1514.4
2014-Oct-24 02:30N 42°59' E 009°34'1414.6
2014-Oct-24 01:33N 42°51' E 009°49'1814.7
2014-Oct-24 00:21N 42°40' E 010°08'1214.6
2014-Oct-23 23:30N 42°33' E 010°21'34510.4
2014-Oct-22 14:25N 38°25' E 015°37'1111.2
2014-Oct-22 13:25N 38°13' E 015°37'  
Track history (hours):
 
Tides and Currents Weather Stations Pressure Air Temp Water Temp Dewpoint Dewpoint Depression Visibility Wind Speed Wind Dir Waves Ship Positions

Berlin

Last reported at 2014-Oct-31 20:33 UTC. Time now 2014-Nov-01 04:11 UTC.
Position N 32°38' W 016°49'.

Length 140 m; draft 5 m.

Type: Passenger vessel. MMSI: 248277000.

Date/timePositionNaut miles runAvg speedWind from/ knotsBaromVisibWave heightAir tempDewpointWater temp
2014-Oct-31 20:33N 32°38' W 016°49'5 5.0
2014-Oct-31 19:33N 32°39' W 016°55'0 0.0
2014-Oct-31 18:33N 32°39' W 016°55'0 0.0
2014-Oct-31 17:30N 32°39' W 016°55'0 0.0
2014-Oct-31 16:33N 32°39' W 016°55'0 0.0
2014-Oct-31 15:33N 32°39' W 016°55'1 0.5
2014-Oct-31 14:33N 32°38' W 016°54'1413.5
2014-Oct-31 13:34N 32°27' W 016°45'1514.3
2014-Oct-31 12:31N 32°15' W 016°35'  
2014-Oct-28 02:33N 34°37' W 007°03'1514.9
2014-Oct-28 01:34N 34°49' W 006°53'1514.9
2014-Oct-28 00:33N 35°01' W 006°42'1414.3
2014-Oct-27 23:33N 35°13' W 006°32'1514.8
2014-Oct-27 22:33N 35°25' W 006°21'5313.2
2014-Oct-27 18:33N 35°59' W 005°31'1313.3
2014-Oct-27 17:33N 36°01' W 005°15'21913.7
2014-Oct-27 01:32N 37°17' W 000°58'1514.9
2014-Oct-27 00:33N 37°26' W 000°44'1514.9
2014-Oct-26 23:33N 37°37' W 000°32'1514.9
2014-Oct-26 22:33N 37°52' W 000°28'1514.6
2014-Oct-26 21:32N 38°06' W 000°24'92 4.1
2014-Oct-25 23:04N 39°10' E 001°01'713.1
2014-Oct-25 22:33N 39°14' E 001°07'1313.0
2014-Oct-25 21:32N 39°23' E 001°20'1313.2
2014-Oct-25 20:33N 39°32' E 001°32'1312.9
2014-Oct-25 19:33N 39°40' E 001°45'1312.8
2014-Oct-25 18:33N 39°49' E 001°57'1312.7
2014-Oct-25 17:33N 39°57' E 002°09'1412.8
2014-Oct-25 16:26N 40°07' E 002°23'1212.5
2014-Oct-25 15:26N 40°15' E 002°35'1313.6
2014-Oct-25 14:31N 40°24' E 002°48'2612.7
2014-Oct-25 12:29N 40°41' E 003°12'1513.1
2014-Oct-25 11:19N 40°51' E 003°28'912.3
2014-Oct-25 10:33N 40°58' E 003°37'1413.0
2014-Oct-25 09:30N 41°07' E 003°50'1413.0
2014-Oct-25 08:25N 41°16' E 004°04'1313.4
2014-Oct-25 07:26N 41°25' E 004°17'1914.5
2014-Oct-25 06:09N 41°38' E 004°36'2614.8
2014-Oct-25 04:22N 41°55' E 005°02'8914.5
2014-Oct-24 22:15N 42°56' E 006°30'1015.2
2014-Oct-24 21:33N 43°03' E 006°40'1515.2
2014-Oct-24 20:33N 43°15' E 006°52'1514.9
2014-Oct-24 19:33N 43°27' E 007°05'1414.1
2014-Oct-24 18:33N 43°39' E 007°16'3 2.8
2014-Oct-24 17:33N 43°42' E 007°17'0 0.0
2014-Oct-24 16:33N 43°42' E 007°17'0 0.0
2014-Oct-24 15:33N 43°42' E 007°17'0 0.0
2014-Oct-24 13:33N 43°42' E 007°17'0 0.0
2014-Oct-24 12:33N 43°42' E 007°17'0 0.0
2014-Oct-24 11:33N 43°42' E 007°17'0 0.4
2014-Oct-24 10:33N 43°41' E 007°17'1111.1
2014-Oct-24 09:33N 43°36' E 007°31'1313.1
2014-Oct-24 08:33N 43°31' E 007°48'1413.3
2014-Oct-24 07:32N 43°26' E 008°05'1313.3
2014-Oct-24 06:33N 43°22' E 008°22'1414.1
2014-Oct-24 05:33N 43°16' E 008°40'1413.8
2014-Oct-24 04:32N 43°11' E 008°58'1414.0
2014-Oct-24 03:33N 43°06' E 009°15'1514.4
2014-Oct-24 02:30N 42°59' E 009°34'1414.6
2014-Oct-24 01:33N 42°51' E 009°49'1814.7
2014-Oct-24 00:21N 42°40' E 010°08'1214.6
2014-Oct-23 23:30N 42°33' E 010°21'34510.4
2014-Oct-22 14:25N 38°25' E 015°37'1111.2
2014-Oct-22 13:25N 38°13' E 015°37'  

Dump ship's entire track history